Irishtown, Illinois
Current Conditions -  °F | °C
As of 5:55 AM on Monday 22 Dec 2014 (Local Time) from KENL Reporting Station
Light Rain Light Rain  
Wind Chill: 35°   Ceiling: 6000
Heat Index: 38°   Visibility: 10mi
Dew Point: 32°   Wind: 5mph
Humidity: 78%   Direction: 120°ESE
Pressure: 29.85"   Gusts: NA
Location:  38.7527°N, 89.3215°W
Report Text: KENL 221155Z AUTO 12004KT 10SM -RA OVC060 04/00 A2985 RMK AO2 T00350000 10035 20031
Loading
Personal Weather Stations






























Interactive Weather Map New forecast layout! Learn more

10-Day Weather Forecast

Advertisements
Track Severe Weather on mobile